This is the latest recevied weather packets stored in our database for station/object K0WXC-1. If no packets are shown the sender has not sent any weather packets the latest 10 day(s).
| Time | Temp. | Humidity | Pressure | Rain* | Wind** | Luminosity | Snow |
|---|---|---|---|---|---|---|---|
| 1777292008 | 15.56° C | 97% | 989.8 hPa | 4.57 mm | 0.45 m/s, 278° | - | - |
| 1777291948 | 15.56° C | 97% | 989.8 hPa | 4.57 mm | 0.45 m/s, 278° | - | - |
| 1777291889 | 15.56° C | 97% | 989.8 hPa | 4.57 mm | 0.45 m/s, 278° | - | - |
| 1777291828 | 15.56° C | 97% | 989 hPa | 4.06 mm | 1.79 m/s, 81° | - | - |
| 1777291768 | 15.56° C | 97% | 989 hPa | 4.06 mm | 1.79 m/s, 81° | - | - |
| 1777291708 | 15.56° C | 97% | 989 hPa | 4.06 mm | 1.79 m/s, 81° | - | - |
| 1777291649 | 15.56° C | 97% | 989 hPa | 4.06 mm | 1.79 m/s, 81° | - | - |
| 1777291588 | 15.56° C | 97% | 989 hPa | 4.06 mm | 1.79 m/s, 81° | - | - |
| 1777291528 | 15.56° C | 97% | 989.1 hPa | 5.84 mm | 3.13 m/s, 112° | - | - |
| 1777291468 | 15.56° C | 97% | 989.1 hPa | 5.84 mm | 3.13 m/s, 112° | - | - |
| 1777291408 | 15.56° C | 97% | 989.1 hPa | 5.84 mm | 3.13 m/s, 112° | - | - |
| 1777291348 | 15.56° C | 97% | 989.1 hPa | 5.84 mm | 3.13 m/s, 112° | - | - |
| 1777291288 | 15.56° C | 97% | 989.1 hPa | 5.84 mm | 3.13 m/s, 112° | - | - |
| 1777291228 | 15.56° C | 96% | 988.3 hPa | 6.6 mm | 1.34 m/s, 44° | - | - |
| 1777291169 | 15.56° C | 96% | 988.3 hPa | 6.6 mm | 1.34 m/s, 44° | - | - |
| 1777291108 | 15.56° C | 96% | 988.3 hPa | 6.6 mm | 1.34 m/s, 44° | - | - |
| 1777291048 | 15.56° C | 96% | 988.3 hPa | 6.6 mm | 1.34 m/s, 44° | - | - |
| 1777290989 | 15.56° C | 96% | 988.3 hPa | 6.6 mm | 1.34 m/s, 44° | - | - |
| 1777290928 | 15.56° C | 96% | 989.4 hPa | 7.62 mm | 0.45 m/s, 116° | - | - |
| 1777290868 | 15.56° C | 96% | 989.4 hPa | 7.62 mm | 0.45 m/s, 116° | - | - |
| 1777290808 | 15.56° C | 96% | 989.4 hPa | 7.62 mm | 0.45 m/s, 116° | - | - |
| 1777290748 | 15.56° C | 96% | 989.4 hPa | 7.62 mm | 0.45 m/s, 116° | - | - |
| 1777290688 | 15.56° C | 96% | 989.4 hPa | 7.62 mm | 0.45 m/s, 116° | - | - |
| 1777290628 | 15.56° C | 96% | 989.8 hPa | 8.89 mm | 0.45 m/s, 93° | - | - |
| 1777290568 | 15.56° C | 96% | 989.8 hPa | 8.89 mm | 0.45 m/s, 93° | - | - |
* Rain latest hour (hover to see other rain measurements)
** Current wind speed in m/s (hover to see current wind gust speed)